createdAt,value
2018-07-28T00:00:06.772Z,49.58
2018-07-28T00:01:06.762Z,49.41
2018-07-28T00:02:06.755Z,49.71
2018-07-28T00:03:06.743Z,49.71
2018-07-28T00:04:06.734Z,50.19
2018-07-28T00:05:06.725Z,49.71
2018-07-28T00:06:06.715Z,49.41
2018-07-28T00:07:06.714Z,49.32
2018-07-28T00:08:06.696Z,49.71
2018-07-28T00:09:06.687Z,50.29
2018-07-28T00:10:06.685Z,50.29
2018-07-28T00:11:06.667Z,50.16
2018-07-28T00:12:06.672Z,49.41
2018-07-28T00:13:06.650Z,49.61
2018-07-28T00:14:06.639Z,50.07
2018-07-28T00:15:06.635Z,49.41
2018-07-28T00:16:06.622Z,49.61
2018-07-28T00:17:06.608Z,49.71
2018-07-28T00:18:06.602Z,49.61
2018-07-28T00:19:06.601Z,50.19
2018-07-28T00:20:06.582Z,50.16
2018-07-28T00:21:06.572Z,50.07
2018-07-28T00:22:06.563Z,49.68
2018-07-28T00:23:06.559Z,49.68
2018-07-28T00:24:06.554Z,49.97
2018-07-28T00:25:06.538Z,50.07
2018-07-28T00:26:06.529Z,49.97
2018-07-28T00:27:06.519Z,49.58
2018-07-28T00:28:06.510Z,50.16
2018-07-28T00:29:06.500Z,50.16
2018-07-28T00:30:06.488Z,50.26
2018-07-28T00:31:06.477Z,50.36
2018-07-28T00:32:06.478Z,50.74
2018-07-28T00:33:06.460Z,50.74
2018-07-28T00:34:06.450Z,50.56
2018-07-28T00:35:06.445Z,50.84
2018-07-28T00:36:06.428Z,50.72
2018-07-28T00:37:06.419Z,51.11
2018-07-28T00:38:06.410Z,51.31
2018-07-28T00:39:06.402Z,50.82
2018-07-28T00:40:06.394Z,51.21
2018-07-28T00:41:06.381Z,50.62
2018-07-28T00:42:06.372Z,50.72
2018-07-28T00:43:06.371Z,50.72
2018-07-28T00:44:06.369Z,51.21
2018-07-28T00:45:06.343Z,51.11
2018-07-28T00:46:06.334Z,51.31
2018-07-28T00:47:06.325Z,51.50
2018-07-28T00:48:06.316Z,51.59
2018-07-28T00:49:06.308Z,51.50
2018-07-28T00:50:06.296Z,51.40
2018-07-28T00:51:06.285Z,51.50
2018-07-28T00:52:06.276Z,51.89
2018-07-28T00:53:06.269Z,51.89
2018-07-28T00:54:06.260Z,51.40
2018-07-28T00:55:06.249Z,51.79
2018-07-28T00:56:06.239Z,52.18
2018-07-28T00:57:06.232Z,52.56
2018-07-28T00:58:06.220Z,52.37
2018-07-28T00:59:06.207Z,52.15
2018-07-28T01:00:06.199Z,51.89
2018-07-28T01:01:06.194Z,52.37
2018-07-28T01:02:06.184Z,52.37
2018-07-28T01:03:06.169Z,52.44
2018-07-28T01:04:06.161Z,52.44
2018-07-28T01:05:06.150Z,52.15
2018-07-28T01:06:06.140Z,52.34
2018-07-28T01:07:06.148Z,52.34
2018-07-28T01:08:06.128Z,52.44
2018-07-28T01:09:06.112Z,52.64
2018-07-28T01:10:06.113Z,52.54
2018-07-28T01:11:06.092Z,52.25
2018-07-28T01:12:06.083Z,52.44
2018-07-28T01:13:06.073Z,52.54
2018-07-28T01:14:06.064Z,52.73
2018-07-28T01:15:06.055Z,52.76
2018-07-28T01:16:06.045Z,52.95
2018-07-28T01:17:06.034Z,52.93
2018-07-28T01:18:06.025Z,53.02
2018-07-28T01:19:06.016Z,53.02
2018-07-28T01:20:06.005Z,53.02
2018-07-28T01:21:05.998Z,53.31
2018-07-28T01:22:05.988Z,53.02
2018-07-28T01:23:05.977Z,53.99
2018-07-28T01:24:05.964Z,53.41
2018-07-28T01:25:05.960Z,53.41
2018-07-28T01:26:05.947Z,53.80
2018-07-28T01:27:05.940Z,53.70
2018-07-28T01:28:05.926Z,53.61
2018-07-28T01:29:05.919Z,54.06
2018-07-28T01:30:05.909Z,53.89
2018-07-28T01:31:05.897Z,53.99
2018-07-28T01:32:05.888Z,53.99
2018-07-28T01:33:05.879Z,53.99
2018-07-28T01:34:05.868Z,53.61
2018-07-28T01:35:05.857Z,53.80
2018-07-28T01:36:05.848Z,53.89
2018-07-28T01:37:05.837Z,54.35
2018-07-28T01:38:05.832Z,54.16
2018-07-28T01:39:05.817Z,54.35
2018-07-28T01:40:05.808Z,54.35
2018-07-28T01:41:05.798Z,54.16
2018-07-28T01:42:05.789Z,54.45
2018-07-28T01:43:05.778Z,54.55
2018-07-28T01:44:05.768Z,54.26
2018-07-28T01:45:05.761Z,54.45
2018-07-28T01:46:05.751Z,54.45
2018-07-28T01:47:05.742Z,54.55
2018-07-28T01:48:05.730Z,54.38
2018-07-28T01:49:05.720Z,53.97
2018-07-28T01:50:05.713Z,54.45
2018-07-28T01:51:05.709Z,54.45
2018-07-28T01:52:05.691Z,54.35
2018-07-28T01:53:05.679Z,54.64
2018-07-28T01:54:05.674Z,55.04
2018-07-28T01:55:05.661Z,54.74
2018-07-28T01:56:05.650Z,54.84
2018-07-28T01:57:05.639Z,54.94
2018-07-28T01:58:05.631Z,54.84
2018-07-28T01:59:05.628Z,54.84
2018-07-28T02:00:05.611Z,54.64
2018-07-28T02:01:05.599Z,54.94
2018-07-28T02:02:05.591Z,54.64
2018-07-28T02:03:05.581Z,54.26
2018-07-28T02:04:05.571Z,54.94
2018-07-28T02:05:05.560Z,55.04
2018-07-28T02:06:05.559Z,54.45
2018-07-28T02:07:05.541Z,54.74
2018-07-28T02:08:05.539Z,54.45
2018-07-28T02:09:05.520Z,54.74
2018-07-28T02:10:05.513Z,54.84
2018-07-28T02:11:05.501Z,54.74
2018-07-28T02:12:05.494Z,54.74
2018-07-28T02:13:05.482Z,54.94
2018-07-28T02:14:05.472Z,54.74
2018-07-28T02:15:05.461Z,55.22
2018-07-28T02:16:05.451Z,55.13
2018-07-28T02:17:05.440Z,54.74
2018-07-28T02:18:05.432Z,55.04
2018-07-28T02:19:05.421Z,54.74
2018-07-28T02:20:05.412Z,54.94
2018-07-28T02:21:05.404Z,55.22
2018-07-28T02:22:05.392Z,55.13
2018-07-28T02:23:05.382Z,54.94
2018-07-28T02:24:05.371Z,55.13
2018-07-28T02:25:05.372Z,55.62
2018-07-28T02:26:05.353Z,55.32
2018-07-28T02:27:05.340Z,55.58
2018-07-28T02:28:05.331Z,56.00
2018-07-28T02:29:05.328Z,55.98
2018-07-28T02:30:05.321Z,56.16
2018-07-28T02:31:05.301Z,55.88
2018-07-28T02:32:05.293Z,56.26
2018-07-28T02:33:05.281Z,55.88
2018-07-28T02:34:05.273Z,56.16
2018-07-28T02:35:05.261Z,56.26
2018-07-28T02:36:05.249Z,56.26
2018-07-28T02:37:05.242Z,56.46
2018-07-28T02:38:05.234Z,56.56
2018-07-28T02:39:05.223Z,56.36
2018-07-28T02:40:05.212Z,56.85
2018-07-28T02:41:05.211Z,57.04
2018-07-28T02:42:05.190Z,56.65
2018-07-28T02:43:05.180Z,56.94
2018-07-28T02:44:05.173Z,57.04
2018-07-28T02:45:05.161Z,57.14
2018-07-28T02:46:05.153Z,56.75
2018-07-28T02:47:05.142Z,56.94
2018-07-28T02:48:05.130Z,56.94
2018-07-28T02:49:05.121Z,56.94
2018-07-28T02:50:05.110Z,56.94
2018-07-28T02:51:05.100Z,56.65
2018-07-28T02:52:05.097Z,57.33
2018-07-28T02:53:05.081Z,57.04
2018-07-28T02:54:05.069Z,57.33
2018-07-28T02:55:05.062Z,57.23
2018-07-28T02:56:05.049Z,57.14
2018-07-28T02:57:05.043Z,56.94
2018-07-28T02:58:05.036Z,57.23
2018-07-28T02:59:05.020Z,57.23
2018-07-28T03:00:05.019Z,57.14
2018-07-28T03:01:04.999Z,57.53
2018-07-28T03:02:04.992Z,56.56
2018-07-28T03:03:05.026Z,57.23
2018-07-28T03:04:04.970Z,56.56
2018-07-28T03:05:04.958Z,56.65
2018-07-28T03:06:04.950Z,56.75
2018-07-28T03:07:04.953Z,56.85
2018-07-28T03:08:04.929Z,57.14
2018-07-28T03:09:04.919Z,57.14
2018-07-28T03:10:04.909Z,57.33
2018-07-28T03:11:04.897Z,56.82
2018-07-28T03:12:04.888Z,57.04
2018-07-28T03:13:04.878Z,57.59
2018-07-28T03:14:04.869Z,57.71
2018-07-28T03:15:04.858Z,57.50
2018-07-28T03:16:04.846Z,57.33
2018-07-28T03:17:04.837Z,57.79
2018-07-28T03:18:04.827Z,57.69
2018-07-28T03:19:04.819Z,57.50
2018-07-28T03:20:04.808Z,57.69
2018-07-28T03:21:04.795Z,57.59
2018-07-28T03:22:04.786Z,57.79
2018-07-28T03:23:04.776Z,58.47
2018-07-28T03:24:04.766Z,57.98
2018-07-28T03:25:04.759Z,58.75
2018-07-28T03:26:04.755Z,58.75
2018-07-28T03:27:04.739Z,58.65
2018-07-28T03:28:04.724Z,58.65
2018-07-28T03:29:04.718Z,58.37
2018-07-28T03:30:04.702Z,58.75
2018-07-28T03:31:04.710Z,58.63
2018-07-28T03:32:04.683Z,58.44
2018-07-28T03:33:04.720Z,58.72
2018-07-28T03:34:04.664Z,58.72
2018-07-28T03:35:04.651Z,58.92
2018-07-28T03:36:04.641Z,59.40
2018-07-28T03:37:04.633Z,59.50
2018-07-28T03:38:04.622Z,59.98
2018-07-28T03:39:04.609Z,60.27
2018-07-28T03:40:04.602Z,60.66
2018-07-28T03:41:04.589Z,60.66
2018-07-28T03:42:04.578Z,60.08
2018-07-28T03:43:04.567Z,59.40
2018-07-28T03:44:04.560Z,59.89
2018-07-28T03:45:04.547Z,60.27
2018-07-28T03:46:04.538Z,59.98
2018-07-28T03:47:04.526Z,59.98
2018-07-28T03:48:04.516Z,60.17
2018-07-28T03:49:04.506Z,60.37
2018-07-28T03:50:04.493Z,60.95
2018-07-28T03:51:04.484Z,61.24
2018-07-28T03:52:04.479Z,60.44
2018-07-28T03:53:04.464Z,59.95
2018-07-28T03:54:04.454Z,60.41
2018-07-28T03:55:04.442Z,61.08
2018-07-28T03:56:04.432Z,62.40
2018-07-28T03:57:04.420Z,62.21
2018-07-28T03:58:04.412Z,62.98
2018-07-28T03:59:04.400Z,62.79
2018-07-28T04:00:04.398Z,63.02
2018-07-28T04:01:04.379Z,63.21
2018-07-28T04:02:04.369Z,63.79
2018-07-28T04:03:04.358Z,63.69
2018-07-28T04:04:04.375Z,62.73
2018-07-28T04:05:04.337Z,63.14
2018-07-28T04:06:04.327Z,63.11
2018-07-28T04:07:04.315Z,63.34
2018-07-28T04:08:04.307Z,62.85
2018-07-28T04:09:04.296Z,62.76
2018-07-28T04:10:04.283Z,62.47
2018-07-28T04:11:04.273Z,62.08
2018-07-28T04:12:04.262Z,62.08
2018-07-28T04:13:04.253Z,62.08
2018-07-28T04:14:04.241Z,62.18
2018-07-28T04:15:04.230Z,61.79
2018-07-28T04:16:04.219Z,62.08
2018-07-28T04:17:04.210Z,62.18
2018-07-28T04:18:04.198Z,63.14
2018-07-28T04:19:04.186Z,62.95
2018-07-28T04:20:04.178Z,63.73
2018-07-28T04:21:04.170Z,63.34
2018-07-28T04:22:04.160Z,63.11
2018-07-28T04:23:04.149Z,63.89
2018-07-28T04:24:04.135Z,63.60
2018-07-28T04:25:04.124Z,63.89
2018-07-28T04:26:04.117Z,64.08
2018-07-28T04:27:04.100Z,63.98
2018-07-28T04:28:04.091Z,64.37
2018-07-28T04:29:04.089Z,63.79
2018-07-28T04:30:04.087Z,64.27
2018-07-28T04:31:04.061Z,65.11
2018-07-28T04:32:04.052Z,65.01
2018-07-28T04:33:04.037Z,65.11
2018-07-28T04:34:04.031Z,65.69
2018-07-28T04:35:04.023Z,65.98
2018-07-28T04:36:04.005Z,65.98
2018-07-28T04:37:04.042Z,65.98
2018-07-28T04:38:03.986Z,66.17
2018-07-28T04:39:03.973Z,65.88
2018-07-28T04:40:03.970Z,65.88
2018-07-28T04:41:03.949Z,66.91
2018-07-28T04:42:03.938Z,66.63
2018-07-28T04:43:03.928Z,65.98
2018-07-28T04:44:03.966Z,65.98
2018-07-28T04:45:03.906Z,65.69
2018-07-28T04:46:03.898Z,65.50
2018-07-28T04:47:03.885Z,66.17
2018-07-28T04:48:03.878Z,66.36
2018-07-28T04:49:03.861Z,65.59
2018-07-28T04:50:03.852Z,66.08
2018-07-28T04:51:03.840Z,65.98
2018-07-28T04:52:03.837Z,65.40
2018-07-28T04:53:03.820Z,65.30
2018-07-28T04:54:03.811Z,65.69
2018-07-28T04:55:03.848Z,66.36
2018-07-28T04:56:03.790Z,66.17
2018-07-28T04:57:03.775Z,66.08
2018-07-28T04:58:03.765Z,66.46
2018-07-28T04:59:03.754Z,65.30
2018-07-28T05:00:03.742Z,65.34
2018-07-28T05:01:03.732Z,65.34
2018-07-28T05:02:03.724Z,65.43
2018-07-28T05:03:03.716Z,64.76
2018-07-28T05:04:03.699Z,64.95
2018-07-28T05:05:03.687Z,64.56
2018-07-28T05:06:03.680Z,64.66
2018-07-28T05:07:03.664Z,65.20
2018-07-28T05:08:03.655Z,66.08
2018-07-28T05:09:03.650Z,66.56
2018-07-28T05:10:03.635Z,67.33
2018-07-28T05:11:03.624Z,67.43
2018-07-28T05:12:03.611Z,66.46
2018-07-28T05:13:03.601Z,66.46
2018-07-28T05:14:03.598Z,66.36
2018-07-28T05:15:03.576Z,65.88
2018-07-28T05:16:03.655Z,66.36
2018-07-28T05:17:03.557Z,65.98
2018-07-28T05:18:03.546Z,66.20
2018-07-28T05:19:03.536Z,66.46
2018-07-28T05:20:03.526Z,66.11
2018-07-28T05:21:03.524Z,65.69
2018-07-28T05:22:03.503Z,66.01
2018-07-28T05:23:03.491Z,66.27
2018-07-28T05:24:03.480Z,66.17
2018-07-28T05:25:03.471Z,66.17
2018-07-28T05:26:03.458Z,66.94
2018-07-28T05:27:03.446Z,67.30
2018-07-28T05:28:03.435Z,67.49
2018-07-28T05:29:03.427Z,68.26
2018-07-28T05:30:03.414Z,68.84
2018-07-28T05:31:03.400Z,68.07
2018-07-28T05:32:03.390Z,67.78
2018-07-28T05:33:03.379Z,68.07
2018-07-28T05:34:03.371Z,68.40
2018-07-28T05:35:03.357Z,68.17
2018-07-28T05:36:03.346Z,67.97
2018-07-28T05:37:03.380Z,67.82
2018-07-28T05:38:03.326Z,68.10
2018-07-28T05:39:03.393Z,68.30
2018-07-28T05:40:03.305Z,68.01
2018-07-28T05:41:03.294Z,67.24
2018-07-28T05:42:03.283Z,67.33
2018-07-28T05:43:03.270Z,67.72
2018-07-28T05:44:03.257Z,67.72
2018-07-28T05:45:03.247Z,68.40
2018-07-28T05:46:03.237Z,68.40
2018-07-28T05:47:03.224Z,68.10
2018-07-28T05:48:03.212Z,68.49
2018-07-28T05:49:03.204Z,67.72
2018-07-28T05:50:03.244Z,67.52
2018-07-28T05:51:03.184Z,66.94
2018-07-28T05:52:03.169Z,66.40
2018-07-28T05:53:03.161Z,66.50
2018-07-28T05:54:03.152Z,66.11
2018-07-28T05:55:03.136Z,66.30
2018-07-28T05:56:03.130Z,66.11
2018-07-28T05:57:03.126Z,66.01
2018-07-28T05:58:03.106Z,65.95
2018-07-28T05:59:03.091Z,66.14
2018-07-28T06:00:03.082Z,66.14
2018-07-28T06:01:03.071Z,65.85
2018-07-28T06:02:03.059Z,65.56
2018-07-28T06:03:03.048Z,64.98
2018-07-28T06:04:03.038Z,65.11
2018-07-28T06:05:03.032Z,64.72
2018-07-28T06:06:03.029Z,64.72
2018-07-28T06:07:03.003Z,64.14
2018-07-28T06:08:02.994Z,63.76
2018-07-28T06:09:02.987Z,63.76
2018-07-28T06:10:02.972Z,63.76
2018-07-28T06:11:02.963Z,63.56
2018-07-28T06:12:02.951Z,63.21
2018-07-28T06:13:02.941Z,63.59
2018-07-28T06:14:02.939Z,63.21
2018-07-28T06:15:02.919Z,63.11
2018-07-28T06:16:02.910Z,62.72
2018-07-28T06:17:02.896Z,62.72
2018-07-28T06:18:02.886Z,63.01
2018-07-28T06:19:02.880Z,62.72
2018-07-28T06:20:02.866Z,62.14
2018-07-28T06:21:02.852Z,61.85
2018-07-28T06:22:02.881Z,62.92
2018-07-28T06:23:02.830Z,62.24
2018-07-28T06:24:02.823Z,61.95
2018-07-28T06:25:02.810Z,61.69
2018-07-28T06:26:02.870Z,61.98
2018-07-28T06:27:02.788Z,62.17
2018-07-28T06:28:02.779Z,61.21
2018-07-28T06:29:02.766Z,60.04
2018-07-28T06:30:02.758Z,59.94
2018-07-28T06:31:02.747Z,60.14
2018-07-28T06:32:02.733Z,59.97
2018-07-28T06:33:02.723Z,58.23
2018-07-28T06:34:02.712Z,58.42
2018-07-28T06:35:02.701Z,58.52
2018-07-28T06:36:02.691Z,58.72
2018-07-28T06:37:02.689Z,58.42
2018-07-28T06:38:02.671Z,58.33
2018-07-28T06:39:02.662Z,58.52
2018-07-28T06:40:02.648Z,58.23
2018-07-28T06:41:02.639Z,58.81
2018-07-28T06:42:02.641Z,58.81
2018-07-28T06:43:02.616Z,57.84
2018-07-28T06:44:02.611Z,58.33
2018-07-28T06:45:02.600Z,58.04
2018-07-28T06:46:02.588Z,58.14
2018-07-28T06:47:02.576Z,58.72
2018-07-28T06:48:02.565Z,57.84
2018-07-28T06:49:02.554Z,58.81
2018-07-28T06:50:02.542Z,58.74
2018-07-28T06:51:02.533Z,57.97
2018-07-28T06:52:02.525Z,58.06
2018-07-28T06:53:02.511Z,57.68
2018-07-28T06:54:02.501Z,57.29
2018-07-28T06:55:02.492Z,57.00
2018-07-28T06:56:02.481Z,57.22
2018-07-28T06:57:02.469Z,56.90
2018-07-28T06:58:02.461Z,57.19
2018-07-28T06:59:02.449Z,56.90
2018-07-28T07:00:02.443Z,56.93
2018-07-28T07:01:02.428Z,56.45
2018-07-28T07:02:02.430Z,55.77
2018-07-28T07:03:02.409Z,56.15
2018-07-28T07:04:02.397Z,55.18
2018-07-28T07:05:02.391Z,55.87
2018-07-28T07:06:02.377Z,54.90
2018-07-28T07:07:02.373Z,55.57
2018-07-28T07:08:02.354Z,54.70
2018-07-28T07:09:02.346Z,55.47
2018-07-28T07:10:02.337Z,56.25
2018-07-28T07:11:02.332Z,56.18
2018-07-28T07:12:02.315Z,55.69
2018-07-28T07:13:02.304Z,55.89
2018-07-28T07:14:02.301Z,55.50
2018-07-28T07:15:02.281Z,54.85
2018-07-28T07:16:02.270Z,54.94
2018-07-28T07:17:02.260Z,54.94
2018-07-28T07:18:02.263Z,54.27
2018-07-28T07:19:02.248Z,54.94
2018-07-28T07:20:02.229Z,54.46
2018-07-28T07:21:02.222Z,54.36
2018-07-28T07:22:02.207Z,54.46
2018-07-28T07:23:02.196Z,54.46
2018-07-28T07:24:02.188Z,54.94
2018-07-28T07:25:02.176Z,55.53
2018-07-28T07:26:02.168Z,55.73
2018-07-28T07:27:02.159Z,55.21
2018-07-28T07:28:02.145Z,56.37
2018-07-28T07:29:02.133Z,56.28
2018-07-28T07:30:02.127Z,57.22
2018-07-28T07:31:02.117Z,57.34
2018-07-28T07:32:02.105Z,57.64
2018-07-28T07:33:02.098Z,57.15
2018-07-28T07:34:02.090Z,56.57
2018-07-28T07:35:02.076Z,56.28
2018-07-28T07:36:02.085Z,56.28
2018-07-28T07:37:02.057Z,56.37
2018-07-28T07:38:02.044Z,56.18
2018-07-28T07:39:02.032Z,56.28
2018-07-28T07:40:02.023Z,56.11
2018-07-28T07:41:02.012Z,55.82
2018-07-28T07:42:02.007Z,56.21
2018-07-28T07:43:01.995Z,55.73
2018-07-28T07:44:01.980Z,56.01
2018-07-28T07:45:01.971Z,55.99
2018-07-28T07:46:01.961Z,56.40
2018-07-28T07:47:01.949Z,56.01
2018-07-28T07:48:01.940Z,56.79
2018-07-28T07:49:01.929Z,56.21
2018-07-28T07:50:01.921Z,56.40
2018-07-28T07:51:01.908Z,57.25
2018-07-28T07:52:01.907Z,57.83
2018-07-28T07:53:01.887Z,57.93
2018-07-28T07:54:02.021Z,58.51
2018-07-28T07:55:01.870Z,59.06
2018-07-28T07:56:01.857Z,58.97
2018-07-28T07:57:01.846Z,58.87
2018-07-28T07:58:01.847Z,59.67
2018-07-28T07:59:01.825Z,59.58
2018-07-28T08:00:01.815Z,59.94
2018-07-28T08:01:01.806Z,60.13
2018-07-28T08:02:01.798Z,60.42
2018-07-28T08:03:01.802Z,60.52
2018-07-28T08:04:01.774Z,60.74
2018-07-28T08:05:01.764Z,60.45
2018-07-28T08:06:01.755Z,60.35
2018-07-28T08:07:01.742Z,60.55
2018-07-28T08:08:01.737Z,60.28
2018-07-28T08:09:01.739Z,60.35
2018-07-28T08:10:01.714Z,60.35
2018-07-28T08:11:01.699Z,60.16
2018-07-28T08:12:01.694Z,60.94
2018-07-28T08:13:01.678Z,61.29
2018-07-28T08:14:01.677Z,61.68
2018-07-28T08:15:01.665Z,62.19
2018-07-28T08:16:01.654Z,62.01
2018-07-28T08:17:01.638Z,61.42
2018-07-28T08:18:01.627Z,61.13
2018-07-28T08:19:01.622Z,61.22
2018-07-28T08:20:01.607Z,61.42
2018-07-28T08:21:01.643Z,61.42
2018-07-28T08:22:01.585Z,61.71
2018-07-28T08:23:01.580Z,62.19
2018-07-28T08:24:01.565Z,62.98
2018-07-28T08:25:01.565Z,62.49
2018-07-28T08:26:01.544Z,62.39
2018-07-28T08:27:01.536Z,62.39
2018-07-28T08:28:01.522Z,62.01
2018-07-28T08:29:01.513Z,62.29
2018-07-28T08:30:01.505Z,62.29
2018-07-28T08:31:01.492Z,63.46
2018-07-28T08:32:01.481Z,62.98
2018-07-28T08:33:01.469Z,63.53
2018-07-28T08:34:01.462Z,63.23
2018-07-28T08:35:01.451Z,63.72
2018-07-28T08:36:01.442Z,63.72
2018-07-28T08:37:01.439Z,63.82
2018-07-28T08:38:01.419Z,63.43
2018-07-28T08:39:01.422Z,63.53
2018-07-28T08:40:01.492Z,63.62
2018-07-28T08:41:01.389Z,64.14
2018-07-28T08:42:01.379Z,63.72
2018-07-28T08:43:01.368Z,64.04
2018-07-28T08:44:01.373Z,64.11
2018-07-28T08:45:01.348Z,64.30
2018-07-28T08:46:01.351Z,64.40
2018-07-28T08:47:01.327Z,64.11
2018-07-28T08:48:01.314Z,64.40
2018-07-28T08:49:01.398Z,64.98
2018-07-28T08:50:01.300Z,64.78
2018-07-28T08:51:01.281Z,65.37
2018-07-28T08:52:01.272Z,64.98
2018-07-28T08:53:01.268Z,65.27
2018-07-28T08:54:01.251Z,65.66
2018-07-28T08:55:01.241Z,66.82
2018-07-28T08:56:01.230Z,67.02
2018-07-28T08:57:01.228Z,68.28
2018-07-28T08:58:01.211Z,68.08
2018-07-28T08:59:01.196Z,69.02
2018-07-28T09:00:01.185Z,70.37
2018-07-28T09:01:01.179Z,70.18
2018-07-28T09:02:01.166Z,69.31
2018-07-28T09:03:01.154Z,71.34
2018-07-28T09:04:01.146Z,71.02
2018-07-28T09:05:01.135Z,74.80
2018-07-28T09:06:01.167Z,74.96
2018-07-28T09:07:01.125Z,74.76
2018-07-28T09:08:01.113Z,76.60
2018-07-28T09:09:01.096Z,75.83
2018-07-28T09:10:01.083Z,75.34
2018-07-28T09:11:01.069Z,74.66
2018-07-28T09:12:01.059Z,74.70
2018-07-28T09:13:01.054Z,73.60
2018-07-28T09:14:01.046Z,72.92
2018-07-28T09:15:01.027Z,74.47
2018-07-28T09:16:01.016Z,75.54
2018-07-28T09:17:01.009Z,75.92
2018-07-28T09:18:01.075Z,75.77
2018-07-28T09:19:00.984Z,76.54
2018-07-28T09:20:01.014Z,77.80
2018-07-28T09:22:00.957Z,76.97
2018-07-28T09:23:00.942Z,76.68
2018-07-28T09:24:00.932Z,76.29
2018-07-28T09:25:00.926Z,75.32
2018-07-28T09:26:00.910Z,74.54
2018-07-28T09:27:00.903Z,73.96
2018-07-28T09:28:00.890Z,74.06
2018-07-28T09:29:00.880Z,73.96
2018-07-28T09:30:00.873Z,74.84
2018-07-28T09:31:00.861Z,75.03
2018-07-28T09:32:00.853Z,75.03
2018-07-28T09:33:00.839Z,74.64
2018-07-28T09:34:00.838Z,74.93
2018-07-28T09:35:00.816Z,74.35
2018-07-28T09:36:00.805Z,73.90
2018-07-28T09:37:00.904Z,73.71
2018-07-28T09:38:00.786Z,72.45
2018-07-28T09:39:00.775Z,72.74
2018-07-28T09:40:00.774Z,73.61
2018-07-28T09:41:00.757Z,74.10
2018-07-28T09:42:00.746Z,73.52
2018-07-28T09:43:00.732Z,74.49
2018-07-28T09:44:00.730Z,73.71
2018-07-28T09:45:00.719Z,73.61
2018-07-28T09:46:00.702Z,73.52
2018-07-28T09:47:00.740Z,73.52
2018-07-28T09:48:00.680Z,73.61
2018-07-28T09:49:00.672Z,73.61
2018-07-28T09:50:00.661Z,75.45
2018-07-28T09:51:00.650Z,76.29
2018-07-28T09:52:00.647Z,77.06
2018-07-28T09:53:00.630Z,76.87
2018-07-28T09:54:00.620Z,78.03
2018-07-28T09:55:00.609Z,78.42
2018-07-28T09:56:00.598Z,79.58
2018-07-28T09:57:00.590Z,80.32
2018-07-28T09:58:00.590Z,80.03
2018-07-28T09:59:00.568Z,80.13
2018-07-28T10:00:00.564Z,80.62
2018-07-28T10:01:00.563Z,81.35
2018-07-28T10:02:00.540Z,82.12
2018-07-28T10:03:00.524Z,82.90
2018-07-28T10:04:00.515Z,83.28
2018-07-28T10:05:00.512Z,83.67
2018-07-28T10:06:00.495Z,84.31
2018-07-28T10:07:00.498Z,84.69
2018-07-28T10:08:00.479Z,85.96
2018-07-28T10:09:00.463Z,86.24
2018-07-28T10:10:00.457Z,86.63
2018-07-28T10:11:00.448Z,86.54
2018-07-28T10:12:00.429Z,86.92
2018-07-28T10:13:00.422Z,86.34
2018-07-28T10:14:00.410Z,87.85
2018-07-28T10:15:00.398Z,87.95
2018-07-28T10:16:00.388Z,88.23
2018-07-28T10:17:00.375Z,89.01
2018-07-28T10:18:00.374Z,88.62
2018-07-28T10:19:00.356Z,88.62
2018-07-28T10:20:00.348Z,89.39
2018-07-28T10:21:00.334Z,90.56
2018-07-28T10:22:00.324Z,91.82
2018-07-28T10:23:00.400Z,90.80
2018-07-28T10:24:00.308Z,92.25
2018-07-28T10:25:00.293Z,91.96
2018-07-28T10:26:00.291Z,91.28
2018-07-28T10:27:00.269Z,92.06
2018-07-28T10:28:00.257Z,92.35
2018-07-28T10:29:00.241Z,92.93
2018-07-28T10:30:00.239Z,93.02
2018-07-28T10:31:00.225Z,93.32
2018-07-28T10:32:00.217Z,92.54
2018-07-28T10:33:00.205Z,92.83
2018-07-28T10:34:00.193Z,93.51
2018-07-28T10:35:00.188Z,92.54
2018-07-28T10:36:00.174Z,92.16
2018-07-28T10:37:00.160Z,93.60
2018-07-28T10:38:00.154Z,94.67
2018-07-28T10:39:00.141Z,95.73
2018-07-28T10:40:00.130Z,94.33
2018-07-28T10:41:00.124Z,93.65
2018-07-28T10:42:00.113Z,94.71
2018-07-28T10:43:00.095Z,96.26
2018-07-28T10:44:00.088Z,96.46
2018-07-28T10:45:00.081Z,94.91
2018-07-28T10:46:00.063Z,94.52
2018-07-28T10:47:00.057Z,92.97
2018-07-28T10:48:00.047Z,93.65
2018-07-28T10:49:00.037Z,95.39
2018-07-28T10:50:00.020Z,93.46
2018-07-28T10:51:00.009Z,94.81
2018-07-28T10:52:00.000Z,94.57
2018-07-28T10:53:00.009Z,94.86
2018-07-28T10:53:59.979Z,95.92
2018-07-28T10:54:59.964Z,96.02
2018-07-28T10:55:59.963Z,95.92
2018-07-28T10:56:59.945Z,97.38
2018-07-28T10:57:59.938Z,96.31
2018-07-28T10:58:59.922Z,96.22
2018-07-28T10:59:59.920Z,97.18
2018-07-28T11:00:59.904Z,95.25
2018-07-28T11:01:59.893Z,96.41
2018-07-28T11:02:59.880Z,96.31
2018-07-28T11:03:59.864Z,97.38
2018-07-28T11:04:59.855Z,97.57
2018-07-28T11:05:59.848Z,98.54
2018-07-28T11:06:59.834Z,95.10
2018-07-28T11:07:59.841Z,93.94
2018-07-28T11:08:59.873Z,94.57
2018-07-28T11:09:59.800Z,93.55
2018-07-28T11:10:59.786Z,92.10
2018-07-28T11:11:59.784Z,93.55
2018-07-28T11:12:59.780Z,94.04
2018-07-28T11:13:59.754Z,94.81
2018-07-28T11:14:59.744Z,90.45
2018-07-28T11:15:59.735Z,92.39
2018-07-28T11:16:59.725Z,93.65
2018-07-28T11:17:59.714Z,91.85
2018-07-28T11:18:59.752Z,91.47
2018-07-28T11:19:59.692Z,91.75
2018-07-28T11:20:59.690Z,92.33
2018-07-28T11:21:59.676Z,91.95
2018-07-28T11:22:59.664Z,90.54
2018-07-28T11:23:59.667Z,93.26
2018-07-28T11:24:59.638Z,93.54
2018-07-28T11:25:59.734Z,91.71
2018-07-28T11:26:59.617Z,90.64
2018-07-28T11:27:59.608Z,87.44
2018-07-28T11:28:59.597Z,84.24
2018-07-28T11:29:59.586Z,85.89
2018-07-28T11:30:59.583Z,85.99
2018-07-28T11:31:59.580Z,82.50
2018-07-28T11:32:59.556Z,83.95
2018-07-28T11:33:59.557Z,83.03
2018-07-28T11:34:59.534Z,83.03
2018-07-28T11:35:59.522Z,84.20
2018-07-28T11:36:59.515Z,81.97
2018-07-28T11:37:59.610Z,80.94
2018-07-28T11:38:59.491Z,80.94
2018-07-28T11:39:59.485Z,83.27
2018-07-28T11:40:59.471Z,82.26
2018-07-28T11:41:59.463Z,82.17
2018-07-28T11:42:59.453Z,84.68
2018-07-28T11:43:59.441Z,83.13
2018-07-28T11:44:59.431Z,81.10
2018-07-28T11:45:59.590Z,78.87
2018-07-28T11:46:59.406Z,79.58
2018-07-28T11:47:59.401Z,82.98
2018-07-28T11:48:59.386Z,82.50
2018-07-28T11:49:59.376Z,79.39
2018-07-28T11:50:59.365Z,81.23
2018-07-28T11:51:59.354Z,79.14
2018-07-28T11:52:59.345Z,79.24
2018-07-28T11:53:59.338Z,80.88
2018-07-28T11:54:59.323Z,77.20
2018-07-28T11:55:59.315Z,76.72
2018-07-28T11:56:59.308Z,76.42
2018-07-28T11:57:59.329Z,77.82
2018-07-28T11:58:59.282Z,78.64
2018-07-28T11:59:59.271Z,73.88
2018-07-28T12:00:59.271Z,73.39
2018-07-28T12:01:59.252Z,72.71
2018-07-28T12:02:59.543Z,74.07
2018-07-28T12:03:59.233Z,72.85
2018-07-28T12:04:59.221Z,72.85
2018-07-28T12:05:59.221Z,70.81
2018-07-28T12:06:59.202Z,70.42
2018-07-28T12:07:59.191Z,70.03
2018-07-28T12:08:59.183Z,69.74
2018-07-28T12:09:59.169Z,70.61
2018-07-28T12:10:59.164Z,70.61
2018-07-28T12:11:59.151Z,68.67
2018-07-28T12:12:59.142Z,67.99
2018-07-28T12:13:59.152Z,68.57
2018-07-28T12:14:59.128Z,67.99
2018-07-28T12:15:59.110Z,69.15
2018-07-28T12:16:59.112Z,68.77
2018-07-28T12:17:59.101Z,70.42
2018-07-28T12:18:59.080Z,68.67
2018-07-28T12:19:59.073Z,68.38
2018-07-28T12:20:59.061Z,68.28
2018-07-28T12:21:59.054Z,68.70
2018-07-28T12:22:59.046Z,70.26
2018-07-28T12:23:59.120Z,69.58
2018-07-28T12:24:59.035Z,67.34
2018-07-28T12:25:59.014Z,65.43
2018-07-28T12:26:59.004Z,65.20
2018-07-28T12:27:58.998Z,68.80
2018-07-28T12:28:58.996Z,68.35
2018-07-28T12:29:58.975Z,66.21
2018-07-28T12:30:58.970Z,65.98
2018-07-28T12:31:58.954Z,66.86
2018-07-28T12:32:58.944Z,68.12
2018-07-28T12:33:58.932Z,66.53
2018-07-28T12:34:59.032Z,65.95
2018-07-28T12:35:58.916Z,65.85
2018-07-28T12:36:58.903Z,67.34
2018-07-28T12:37:58.896Z,66.17
2018-07-28T12:38:58.893Z,64.69
2018-07-28T12:39:58.876Z,64.98
2018-07-28T12:40:58.914Z,64.49
2018-07-28T12:41:58.855Z,65.59
2018-07-28T12:42:58.861Z,65.30
2018-07-28T12:43:58.839Z,64.23
2018-07-28T12:44:58.825Z,63.87
2018-07-28T12:45:58.832Z,64.26
2018-07-28T12:46:58.808Z,64.00
2018-07-28T12:47:58.800Z,63.03
2018-07-28T12:48:58.785Z,62.54
2018-07-28T12:49:58.775Z,61.28
2018-07-28T12:50:58.785Z,62.06
2018-07-28T12:51:58.759Z,61.57
2018-07-28T12:52:58.759Z,62.45